Time;durP1;ratioP1;P1;durP2;ratioP2;P2;SDS_P1;SDS_P2;PMS_P1;PMS_P2;Temp;Humidity;BMP_temperature;BMP_pressure;BME280_temperature;BME280_humidity;BME280_pressure;Samples;Min_cycle;Max_cycle;Signal;HPM_P1;HPM_P2
2021/08/08 00:01:30;;;;;;;2.33;1.90;;;14.90;99.90;;;;;;5040769;28;20260;-87
2021/08/08 00:03:55;;;;;;;2.33;1.77;;;14.90;99.90;;;;;;5023448;28;20667;-88
2021/08/08 00:06:21;;;;;;;4.87;2.13;;;14.80;99.90;;;;;;5022272;28;21038;-88
2021/08/08 00:08:47;;;;;;;4.43;2.40;;;14.80;99.90;;;;;;5021372;28;21214;-89
2021/08/08 00:11:13;;;;;;;4.63;2.40;;;14.80;99.90;;;;;;5020831;28;20232;-86
2021/08/08 00:13:39;;;;;;;3.37;2.37;;;14.70;99.90;;;;;;5005601;28;20194;-87
2021/08/08 00:16:05;;;;;;;3.10;2.40;;;14.70;99.90;;;;;;5022425;28;20592;-86
2021/08/08 00:18:31;;;;;;;3.83;2.40;;;14.70;99.90;;;;;;5012471;28;20229;-87
2021/08/08 00:20:57;;;;;;;4.20;2.83;;;14.70;99.90;;;;;;5021165;28;20224;-91
2021/08/08 00:23:23;;;;;;;7.03;2.33;;;14.60;99.90;;;;;;5019748;28;20753;-86
2021/08/08 00:25:50;;;;;;;3.63;2.13;;;14.60;99.90;;;;;;5006505;28;20437;-88
2021/08/08 00:28:15;;;;;;;5.90;2.67;;;14.50;99.90;;;;;;5021343;28;20247;-87
2021/08/08 00:30:41;;;;;;;5.20;2.67;;;14.50;99.90;;;;;;5003738;28;20690;-86
2021/08/08 00:33:07;;;;;;;4.23;2.30;;;14.50;99.90;;;;;;5002509;28;20252;-87
2021/08/08 00:35:33;;;;;;;2.20;1.70;;;14.50;99.90;;;;;;5020596;28;20675;-86
2021/08/08 00:37:59;;;;;;;3.93;2.83;;;14.50;99.90;;;;;;5021247;28;20201;-87
2021/08/08 00:40:24;;;;;;;3.07;2.73;;;14.40;99.90;;;;;;5020872;28;20250;-91
2021/08/08 00:42:50;;;;;;;2.53;2.00;;;14.40;99.90;;;;;;5021077;28;20229;-89
2021/08/08 00:45:18;;;;;;;7.00;2.80;;;14.40;99.90;;;;;;5021532;28;20267;-87
2021/08/08 00:47:45;;;;;;;5.27;2.33;;;14.30;99.90;;;;;;5003766;28;20221;-88
2021/08/08 00:50:12;;;;;;;3.17;2.60;;;14.40;99.90;;;;;;5020774;28;20190;-88
2021/08/08 00:52:38;;;;;;;3.97;2.30;;;14.40;99.90;;;;;;5005072;28;20649;-87
2021/08/08 00:55:05;;;;;;;4.90;2.87;;;14.50;99.90;;;;;;5018561;28;20242;-90
2021/08/08 00:57:30;;;;;;;5.87;2.73;;;14.50;99.90;;;;;;5038579;28;20316;-87
2021/08/08 00:59:56;;;;;;;4.90;2.77;;;14.50;99.90;;;;;;5018107;28;20233;-87
2021/08/08 01:02:22;;;;;;;5.63;2.83;;;14.50;99.90;;;;;;5019256;28;20218;-86
2021/08/08 01:04:59;;;;;;;5.27;4.00;;;14.60;99.90;;;;;;5038146;28;20236;-87
2021/08/08 01:07:34;;;;;;;7.00;3.20;;;14.60;99.90;;;;;;5018910;28;20674;-86
2021/08/08 01:10:03;;;;;;;4.77;2.90;;;14.60;99.90;;;;;;5019027;28;20237;-88
2021/08/08 01:12:29;;;;;;;6.47;3.57;;;14.60;99.90;;;;;;5019721;28;20336;-87
2021/08/08 01:14:58;;;;;;;6.90;4.17;;;14.60;99.90;;;;;;5003892;28;20294;-86
2021/08/08 01:17:24;;;;;;;4.07;2.43;;;14.70;99.90;;;;;;5020215;28;20226;-86
2021/08/08 01:19:58;;;;;;;6.27;3.40;;;14.70;99.90;;;;;;5000150;28;20214;-88
2021/08/08 01:22:28;;;;;;;7.83;3.53;;;14.70;99.90;;;;;;5021591;28;20202;-86
2021/08/08 01:24:56;;;;;;;5.43;3.33;;;14.70;99.90;;;;;;5021065;28;20214;-87
2021/08/08 01:27:22;;;;;;;4.60;3.40;;;14.80;99.90;;;;;;5005759;28;20882;-88
2021/08/08 01:29:48;;;;;;;4.67;4.20;;;14.80;99.90;;;;;;5039343;28;20213;-87
2021/08/08 01:32:14;;;;;;;3.37;3.03;;;14.80;99.90;;;;;;5021760;28;20646;-86
2021/08/08 01:34:39;;;;;;;4.70;3.67;;;14.70;99.90;;;;;;5021002;28;20194;-89
2021/08/08 01:37:05;;;;;;;4.43;3.73;;;14.70;99.90;;;;;;5021174;28;20213;-86
2021/08/08 01:39:34;;;;;;;6.57;3.37;;;14.60;99.90;;;;;;5003950;28;20240;-86
2021/08/08 01:42:05;;;;;;;4.30;3.07;;;14.60;99.90;;;;;;5038360;28;20249;-88
2021/08/08 01:44:36;;;;;;;3.77;2.83;;;14.50;99.90;;;;;;5039025;28;20391;-87
2021/08/08 01:47:02;;;;;;;6.90;3.03;;;14.50;99.90;;;;;;5024892;28;20631;-90
2021/08/08 01:49:30;;;;;;;6.73;2.90;;;14.50;99.90;;;;;;5024852;28;20640;-87
2021/08/08 01:51:57;;;;;;;4.47;3.27;;;14.50;99.90;;;;;;5024560;28;20217;-86
2021/08/08 01:54:24;;;;;;;4.90;3.03;;;14.50;99.90;;;;;;5041198;28;20225;-87
2021/08/08 01:56:51;;;;;;;3.97;2.90;;;14.40;99.90;;;;;;5024450;28;20229;-86
2021/08/08 01:59:17;;;;;;;3.97;2.50;;;14.40;99.90;;;;;;5031291;28;20816;-88
2021/08/08 02:01:43;;;;;;;4.93;2.83;;;14.40;99.90;;;;;;5042965;28;20232;-87
2021/08/08 02:04:15;;;;;;;4.00;3.03;;;14.40;99.90;;;;;;5039872;28;20231;-86
2021/08/08 02:06:41;;;;;;;7.63;2.93;;;14.40;99.90;;;;;;5022769;28;20276;-86
2021/08/08 02:09:07;;;;;;;4.87;2.90;;;14.30;99.90;;;;;;5006102;28;20245;-90
2021/08/08 02:11:33;;;;;;;5.23;3.00;;;14.30;99.90;;;;;;5040411;28;20229;-87
2021/08/08 02:13:59;;;;;;;4.87;3.17;;;14.30;99.90;;;;;;4997413;28;20667;-90
2021/08/08 02:16:24;;;;;;;4.57;3.30;;;14.30;99.90;;;;;;5008315;28;20190;-88
2021/08/08 02:18:50;;;;;;;3.30;2.30;;;14.30;99.90;;;;;;5022928;28;20576;-86
2021/08/08 02:21:16;;;;;;;4.17;3.23;;;14.30;99.90;;;;;;5042608;28;20244;-86
2021/08/08 02:23:42;;;;;;;6.30;2.83;;;14.30;99.90;;;;;;5007632;28;20697;-86
2021/08/08 02:26:07;;;;;;;3.43;2.07;;;14.30;99.90;;;;;;5007298;28;20647;-86
2021/08/08 02:28:33;;;;;;;4.20;2.10;;;14.30;99.90;;;;;;5042808;28;20194;-85
2021/08/08 02:30:59;;;;;;;7.10;3.03;;;14.30;99.90;;;;;;5041306;28;20233;-87
2021/08/08 02:33:24;;;;;;;4.90;2.67;;;14.30;99.90;;;;;;5005487;28;20267;-89
2021/08/08 02:35:50;;;;;;;5.27;2.53;;;14.40;99.90;;;;;;5007271;28;20320;-86
2021/08/08 02:38:16;;;;;;;4.83;3.27;;;14.40;99.90;;;;;;5007711;28;20236;-88
2021/08/08 02:40:42;;;;;;;4.67;3.43;;;14.40;99.90;;;;;;5007732;28;20244;-87
2021/08/08 02:43:07;;;;;;;9.30;3.30;;;14.40;99.90;;;;;;5023353;28;20206;-89
2021/08/08 02:45:33;;;;;;;3.47;3.10;;;14.40;99.90;;;;;;5006182;28;20218;-87
2021/08/08 02:47:59;;;;;;;5.03;3.00;;;14.50;99.90;;;;;;5023139;28;20225;-88
2021/08/08 02:50:25;;;;;;;4.60;3.43;;;14.50;99.90;;;;;;5006550;28;20738;-92
2021/08/08 02:52:53;;;;;;;14.90;4.17;;;14.50;99.90;;;;;;5024589;28;20190;-85
2021/08/08 02:55:19;;;;;;;6.20;3.87;;;14.50;99.90;;;;;;5016359;28;20324;-86
2021/08/08 02:57:45;;;;;;;11.03;3.47;;;14.50;99.90;;;;;;5022862;28;20209;-86
2021/08/08 03:00:12;;;;;;;5.03;3.20;;;14.40;99.90;;;;;;5008337;28;20238;-87
2021/08/08 03:02:37;;;;;;;3.53;2.93;;;14.50;99.90;;;;;;5006638;28;21188;-89
2021/08/08 03:05:04;;;;;;;5.03;3.00;;;14.50;99.90;;;;;;5041391;28;20196;-87
2021/08/08 03:07:29;;;;;;;3.20;2.90;;;14.50;99.90;;;;;;5007971;28;20281;-86
2021/08/08 03:09:58;;;;;;;7.67;3.70;;;14.40;99.90;;;;;;5041591;28;20241;-87
2021/08/08 03:12:24;;;;;;;4.57;2.87;;;14.40;99.90;;;;;;5042618;28;20271;-87
2021/08/08 03:14:49;;;;;;;3.43;2.43;;;14.40;99.90;;;;;;5023073;28;20619;-88
2021/08/08 03:17:15;;;;;;;4.57;2.97;;;14.40;99.90;;;;;;5022864;28;20233;-90
2021/08/08 03:19:41;;;;;;;11.80;3.60;;;14.40;99.90;;;;;;5023340;28;20249;-88
2021/08/08 03:22:07;;;;;;;5.10;3.43;;;14.40;99.90;;;;;;4997572;28;20225;-86
2021/08/08 03:24:33;;;;;;;4.17;3.20;;;14.30;99.90;;;;;;5006172;28;20254;-87
2021/08/08 03:26:58;;;;;;;7.23;3.53;;;14.30;99.90;;;;;;5040337;28;20298;-87
2021/08/08 03:29:24;;;;;;;6.47;3.70;;;14.30;99.90;;;;;;5006771;28;20222;-86
2021/08/08 03:31:50;;;;;;;4.13;3.13;;;14.30;99.90;;;;;;5022290;28;20182;-88
2021/08/08 03:34:15;;;;;;;5.93;3.27;;;14.30;99.90;;;;;;5022150;28;20582;-88
2021/08/08 03:36:41;;;;;;;6.90;2.90;;;14.30;99.90;;;;;;5022182;28;20225;-88
2021/08/08 03:39:07;;;;;;;4.17;2.83;;;14.30;99.90;;;;;;5006632;28;20236;-86
2021/08/08 03:41:33;;;;;;;5.73;3.27;;;14.30;99.90;;;;;;5004446;28;20649;-86
2021/08/08 03:43:58;;;;;;;8.90;4.03;;;14.30;99.90;;;;;;5021728;28;20512;-87
2021/08/08 03:46:24;;;;;;;8.60;3.33;;;14.40;99.90;;;;;;5021878;28;20190;-87
2021/08/08 03:48:50;;;;;;;5.73;3.90;;;14.40;99.90;;;;;;5022219;28;20738;-90
2021/08/08 03:51:15;;;;;;;5.80;4.00;;;14.40;99.90;;;;;;5005733;28;20796;-86
2021/08/08 03:53:41;;;;;;;3.63;3.13;;;14.40;99.90;;;;;;5022432;28;20797;-88
2021/08/08 03:56:07;;;;;;;6.03;3.43;;;14.50;99.90;;;;;;5006570;28;20197;-86
2021/08/08 03:58:33;;;;;;;6.63;3.70;;;14.50;99.90;;;;;;5029239;28;20221;-88
2021/08/08 04:01:00;;;;;;;7.80;4.03;;;14.50;99.90;;;;;;5022394;28;20667;-87
2021/08/08 04:03:28;;;;;;;7.43;3.57;;;14.60;99.90;;;;;;5022316;28;20241;-86
2021/08/08 04:05:54;;;;;;;8.27;4.57;;;14.60;99.90;;;;;;5022925;28;20221;-88
2021/08/08 04:08:19;;;;;;;9.30;3.77;;;14.70;99.90;;;;;;5005918;28;20280;-86
2021/08/08 04:10:45;;;;;;;10.30;3.90;;;14.80;99.90;;;;;;5005593;28;20356;-86
2021/08/08 04:13:11;;;;;;;11.80;4.87;;;14.80;99.90;;;;;;5020984;28;20821;-87
2021/08/08 04:15:37;;;;;;;9.20;4.67;;;14.90;99.90;;;;;;5006399;28;20218;-87
2021/08/08 04:18:03;;;;;;;10.33;5.60;;;15.00;99.90;;;;;;5021380;28;20674;-87
2021/08/08 04:20:28;;;;;;;8.23;4.33;;;15.10;99.90;;;;;;5021570;28;21165;-89
2021/08/08 04:22:54;;;;;;;10.23;6.03;;;15.20;99.90;;;;;;5021642;28;20267;-87
2021/08/08 04:25:20;;;;;;;11.43;6.03;;;15.30;99.90;;;;;;5022267;28;20253;-88
2021/08/08 04:27:46;;;;;;;9.77;4.77;;;15.40;99.90;;;;;;5022045;28;20217;-87
2021/08/08 04:30:12;;;;;;;10.73;6.30;;;15.50;99.90;;;;;;5022286;28;20730;-88
2021/08/08 04:32:37;;;;;;;10.07;6.53;;;15.50;99.90;;;;;;5021627;28;21122;-87
2021/08/08 04:35:03;;;;;;;11.93;5.30;;;15.60;99.90;;;;;;5012927;28;20186;-88
2021/08/08 04:37:29;;;;;;;7.57;5.20;;;15.60;99.90;;;;;;5020511;28;20718;-86
2021/08/08 04:39:55;;;;;;;9.77;6.10;;;15.70;99.90;;;;;;5004960;28;20228;-90
2021/08/08 04:42:20;;;;;;;11.03;4.97;;;15.70;99.90;;;;;;5021287;28;20217;-87
2021/08/08 04:44:46;;;;;;;8.97;5.43;;;15.70;99.90;;;;;;5005051;28;20712;-86
2021/08/08 04:47:12;;;;;;;13.57;5.17;;;15.80;99.90;;;;;;5011206;28;20256;-86
2021/08/08 04:49:38;;;;;;;11.73;5.83;;;15.80;99.90;;;;;;5022156;28;20258;-86
2021/08/08 04:52:03;;;;;;;12.60;5.27;;;15.70;99.90;;;;;;5005409;28;20362;-85
2021/08/08 04:54:29;;;;;;;15.03;6.87;;;15.70;99.90;;;;;;5022058;28;20247;-84
2021/08/08 04:56:55;;;;;;;11.10;5.87;;;15.70;99.90;;;;;;5039876;28;20308;-87
2021/08/08 04:59:21;;;;;;;11.83;5.80;;;15.70;99.90;;;;;;5021564;28;20683;-88
2021/08/08 05:01:46;;;;;;;11.20;5.87;;;15.80;99.90;;;;;;5004407;28;20281;-88
2021/08/08 05:04:12;;;;;;;10.00;5.57;;;15.80;99.90;;;;;;5005809;28;20343;-86
2021/08/08 05:06:38;;;;;;;18.43;5.40;;;15.80;99.90;;;;;;5038615;28;20284;-86
2021/08/08 05:09:04;;;;;;;9.93;4.97;;;15.80;99.90;;;;;;5039577;28;20240;-86
2021/08/08 05:11:31;;;;;;;7.43;5.10;;;15.80;99.90;;;;;;5038308;28;20355;-86
2021/08/08 05:13:58;;;;;;;10.27;4.03;;;15.90;99.90;;;;;;5021304;28;20198;-88
2021/08/08 05:16:24;;;;;;;9.37;4.67;;;16.00;99.90;;;;;;5021329;28;20193;-90
2021/08/08 05:18:50;;;;;;;15.73;4.97;;;16.00;99.90;;;;;;5004499;28;20764;-86
2021/08/08 05:21:15;;;;;;;10.43;4.97;;;16.10;99.90;;;;;;5025195;28;20225;-88
2021/08/08 05:23:41;;;;;;;6.73;3.63;;;16.20;99.90;;;;;;5024970;28;20229;-86
2021/08/08 05:26:07;;;;;;;11.03;4.67;;;16.20;99.90;;;;;;5025135;28;20182;-86
2021/08/08 05:28:32;;;;;;;8.67;5.40;;;16.20;99.90;;;;;;5009336;28;20190;-88
2021/08/08 05:30:59;;;;;;;10.93;4.77;;;16.30;99.90;;;;;;5008064;28;20751;-87
2021/08/08 05:33:25;;;;;;;14.33;5.47;;;16.40;99.90;;;;;;5008150;28;20342;-88
2021/08/08 05:35:52;;;;;;;6.80;4.83;;;16.50;99.90;;;;;;5024888;28;20304;-86
2021/08/08 05:38:18;;;;;;;10.60;4.90;;;16.60;99.90;;;;;;5042262;28;20222;-87
2021/08/08 05:40:44;;;;;;;7.77;4.53;;;16.70;99.90;;;;;;5008933;28;20257;-90
2021/08/08 05:43:09;;;;;;;8.43;4.20;;;16.70;99.90;;;;;;5008715;28;20775;-85
2021/08/08 05:45:35;;;;;;;5.90;4.03;;;16.60;99.90;;;;;;5025133;28;20226;-88
2021/08/08 05:48:01;;;;;;;6.37;4.33;;;16.70;99.90;;;;;;5024039;28;20274;-87
2021/08/08 05:50:26;;;;;;;7.20;4.77;;;16.90;99.90;;;;;;5008208;28;20232;-88
2021/08/08 05:52:52;;;;;;;7.50;4.93;;;17.20;99.90;;;;;;5008548;28;20194;-86
2021/08/08 05:55:19;;;;;;;10.50;4.90;;;17.40;99.90;;;;;;5007880;28;20236;-85
2021/08/08 05:57:45;;;;;;;8.53;5.47;;;17.70;99.90;;;;;;5007732;28;20218;-88
2021/08/08 06:00:11;;;;;;;8.93;4.40;;;18.30;99.90;;;;;;5024000;28;20283;-87
2021/08/08 06:02:37;;;;;;;8.13;3.97;;;18.10;99.90;;;;;;5041909;28;20229;-85
2021/08/08 06:05:04;;;;;;;5.73;3.80;;;17.90;99.90;;;;;;5042555;28;20582;-86
2021/08/08 06:07:29;;;;;;;6.73;3.97;;;17.90;99.90;;;;;;5025045;28;20244;-86
2021/08/08 06:09:55;;;;;;;5.60;3.67;;;18.00;99.90;;;;;;4984815;28;20226;-89
2021/08/08 06:12:21;;;;;;;8.73;3.10;;;17.90;99.90;;;;;;5019581;28;20321;-89
2021/08/08 06:14:47;;;;;;;9.20;2.93;;;17.90;99.90;;;;;;5035377;28;20245;-89
2021/08/08 06:17:12;;;;;;;7.23;3.40;;;17.70;99.90;;;;;;5038517;28;20498;-87
2021/08/08 06:19:38;;;;;;;6.43;3.10;;;17.70;99.90;;;;;;5023943;28;20317;-86
2021/08/08 06:22:05;;;;;;;7.17;3.47;;;17.60;99.90;;;;;;5041600;28;20297;-87
2021/08/08 06:24:30;;;;;;;6.10;3.17;;;17.60;99.90;;;;;;5025014;28;20663;-86
2021/08/08 06:26:56;;;;;;;3.80;2.97;;;17.60;99.90;;;;;;5008155;28;20759;-85
2021/08/08 06:29:22;;;;;;;12.73;3.20;;;17.50;99.90;;;;;;5024672;28;20664;-85
2021/08/08 06:31:48;;;;;;;5.67;3.03;;;17.50;99.90;;;;;;5008472;28;20570;-86
2021/08/08 06:34:13;;;;;;;4.23;2.53;;;17.50;99.90;;;;;;5007393;28;20273;-85
2021/08/08 06:36:39;;;;;;;8.07;3.57;;;17.40;99.90;;;;;;5025062;28;20263;-85
2021/08/08 06:39:05;;;;;;;6.80;3.17;;;17.40;99.90;;;;;;5039885;28;20269;-86
2021/08/08 06:41:32;;;;;;;6.73;2.83;;;17.30;99.90;;;;;;5008365;28;20218;-86
2021/08/08 06:43:58;;;;;;;4.63;2.73;;;17.40;99.90;;;;;;5007754;28;20194;-88
2021/08/08 06:46:25;;;;;;;8.50;2.60;;;17.50;99.90;;;;;;5024618;28;20218;-86
2021/08/08 06:48:50;;;;;;;7.90;2.67;;;17.60;99.90;;;;;;5007575;28;20264;-88
2021/08/08 06:51:16;;;;;;;9.30;3.03;;;17.60;99.90;;;;;;5038324;28;20241;-86
2021/08/08 06:53:42;;;;;;;9.03;2.77;;;17.70;99.90;;;;;;5021460;28;20218;-88
2021/08/08 06:56:08;;;;;;;6.40;2.30;;;17.70;99.90;;;;;;5004919;28;20252;-85
2021/08/08 06:58:33;;;;;;;3.33;3.03;;;17.60;99.90;;;;;;5022077;28;20236;-86
2021/08/08 07:00:59;;;;;;;5.17;2.63;;;17.60;99.90;;;;;;5041478;28;20724;-85
2021/08/08 07:03:25;;;;;;;6.47;2.30;;;17.70;99.90;;;;;;5039583;28;20336;-87
2021/08/08 07:05:50;;;;;;;4.83;1.77;;;17.80;99.90;;;;;;5041861;28;20214;-85
2021/08/08 07:08:16;;;;;;;5.37;2.33;;;18.00;99.90;;;;;;5002952;28;20590;-87
2021/08/08 07:10:42;;;;;;;12.17;3.13;;;18.10;99.90;;;;;;5001775;28;20226;-85
2021/08/08 07:13:07;;;;;;;5.70;2.17;;;18.10;99.90;;;;;;5016102;28;20624;-87
2021/08/08 07:15:33;;;;;;;7.47;2.63;;;18.00;99.90;;;;;;5017023;28;20379;-87
2021/08/08 07:17:59;;;;;;;4.43;2.60;;;17.70;99.90;;;;;;5017124;28;20504;-86
2021/08/08 07:20:25;;;;;;;3.47;2.10;;;17.60;99.90;;;;;;5007065;28;20753;-87
2021/08/08 07:22:50;;;;;;;6.23;2.40;;;17.60;99.90;;;;;;5004298;28;20202;-88
2021/08/08 07:25:16;;;;;;;4.03;1.87;;;17.70;99.90;;;;;;5003785;28;20341;-88
2021/08/08 07:27:42;;;;;;;4.27;2.77;;;17.60;99.90;;;;;;5002439;28;20260;-87
2021/08/08 07:30:08;;;;;;;6.77;2.67;;;17.70;99.90;;;;;;4999349;28;20300;-85
2021/08/08 07:32:34;;;;;;;7.70;2.93;;;17.80;99.90;;;;;;5015496;28;20238;-86
2021/08/08 07:35:02;;;;;;;4.97;2.37;;;17.80;99.90;;;;;;5000833;28;20191;-86
2021/08/08 07:37:27;;;;;;;9.50;2.40;;;17.70;99.90;;;;;;5019268;28;20208;-87
2021/08/08 07:39:53;;;;;;;5.00;2.17;;;17.80;99.90;;;;;;5017011;28;20703;-88
2021/08/08 07:42:19;;;;;;;6.87;2.87;;;17.70;99.90;;;;;;5017254;28;20219;-89
2021/08/08 07:44:45;;;;;;;10.03;3.07;;;17.90;99.90;;;;;;4994586;28;20215;-87
2021/08/08 07:47:15;;;;;;;5.00;2.43;;;19.10;99.90;;;;;;5003070;28;20198;-86
2021/08/08 07:49:42;;;;;;;7.37;2.90;;;21.00;99.90;;;;;;5019019;28;20221;-87
2021/08/08 07:52:07;;;;;;;4.60;2.20;;;23.40;99.90;;;;;;5009288;28;20246;-87
2021/08/08 07:54:33;;;;;;;7.20;2.83;;;24.70;99.90;;;;;;4992899;28;20337;-87
2021/08/08 07:56:59;;;;;;;6.17;2.47;;;24.40;99.90;;;;;;5015330;28;20310;-88
2021/08/08 07:59:25;;;;;;;10.20;2.37;;;25.30;99.90;;;;;;5015897;28;20235;-87
2021/08/08 08:01:51;;;;;;;6.03;1.95;;;24.90;99.90;;;;;;5017817;28;20199;-88
2021/08/08 08:04:19;;;;;;;4.03;1.73;;;22.30;99.90;;;;;;5000712;28;20215;-86
2021/08/08 08:06:45;;;;;;;4.82;1.58;;;21.70;99.90;;;;;;5017002;28;20289;-87
2021/08/08 08:09:11;;;;;;;5.50;1.77;;;20.60;99.90;;;;;;5018910;28;20231;-88
2021/08/08 08:11:42;;;;;;;6.37;2.23;;;21.10;99.90;;;;;;5036880;28;20224;-87
2021/08/08 08:14:08;;;;;;;3.63;1.87;;;21.60;99.90;;;;;;5035403;28;20242;-89
2021/08/08 08:16:34;;;;;;;4.33;2.10;;;21.30;99.90;;;;;;5038943;28;20194;-87
2021/08/08 08:18:59;;;;;;;5.40;1.83;;;21.00;99.90;;;;;;5003303;28;20234;-88
2021/08/08 08:21:25;;;;;;;5.90;2.53;;;21.50;99.90;;;;;;5001437;28;21138;-88
2021/08/08 08:23:51;;;;;;;2.10;1.90;;;22.00;99.90;;;;;;5020060;28;20218;-89
2021/08/08 08:26:17;;;;;;;2.10;1.80;;;22.10;99.90;;;;;;5020147;28;20221;-86
2021/08/08 08:28:42;;;;;;;6.90;2.97;;;21.60;99.90;;;;;;5021771;28;20961;-86
2021/08/08 08:31:09;;;;;;;5.07;1.90;;;21.80;99.90;;;;;;5021686;28;20252;-88
2021/08/08 08:33:36;;;;;;;2.00;1.90;;;21.00;99.90;;;;;;5003380;28;20738;-89
2021/08/08 08:36:02;;;;;;;6.33;2.00;;;20.40;99.90;;;;;;5017562;28;20276;-89
2021/08/08 08:38:27;;;;;;;1.60;1.30;;;21.40;99.90;;;;;;5034061;28;20631;-91
2021/08/08 08:40:55;;;;;;;4.67;1.97;;;21.00;99.90;;;;;;5018036;28;20594;-87
2021/08/08 08:43:26;;;;;;;4.50;2.13;;;21.60;99.90;;;;;;5035923;28;20279;-89
2021/08/08 08:45:52;;;;;;;5.70;2.00;;;21.90;99.90;;;;;;5037102;28;20218;-87
2021/08/08 08:48:19;;;;;;;3.10;1.97;;;21.00;99.90;;;;;;5020423;28;20210;-87
2021/08/08 08:50:50;;;;;;;6.53;2.30;;;20.60;99.90;;;;;;5018562;28;20248;-88
2021/08/08 08:53:16;;;;;;;2.90;1.83;;;20.20;99.90;;;;;;5020630;28;20306;-91
2021/08/08 08:55:42;;;;;;;3.67;2.07;;;19.80;99.90;;;;;;5021877;28;20321;-90
2021/08/08 08:58:08;;;;;;;4.97;1.87;;;19.50;99.90;;;;;;5005563;28;21206;-91
2021/08/08 09:00:34;;;;;;;4.90;2.00;;;19.40;99.90;;;;;;5021365;28;20308;-89
2021/08/08 09:03:00;;;;;;;7.60;2.60;;;19.30;99.90;;;;;;5005355;28;20352;-92
2021/08/08 09:05:27;;;;;;;7.37;2.33;;;19.00;99.90;;;;;;5020500;28;20221;-87
2021/08/08 09:07:53;;;;;;;6.90;2.10;;;18.80;99.90;;;;;;5018389;28;20194;-88
2021/08/08 09:10:22;;;;;;;4.97;2.00;;;18.60;99.90;;;;;;5021244;28;20235;-85
2021/08/08 09:13:01;;;;;;;4.47;1.87;;;18.70;99.90;;;;;;5021566;28;20237;-89
2021/08/08 09:15:45;;;;;;;3.90;1.60;;;18.70;99.90;;;;;;5020577;28;20225;-89
2021/08/08 09:18:16;;;;;;;9.20;2.63;;;18.60;99.90;;;;;;5017075;28;20226;-88
2021/08/08 09:20:43;;;;;;;4.80;1.63;;;18.50;99.90;;;;;;4986745;28;20230;-89
2021/08/08 09:23:09;;;;;;;3.97;1.90;;;18.40;99.90;;;;;;5019409;28;20182;-87
2021/08/08 09:25:37;;;;;;;4.20;2.00;;;18.40;99.90;;;;;;5017997;28;20185;-89
2021/08/08 09:28:11;;;;;;;3.53;2.00;;;18.30;99.90;;;;;;5000508;28;20777;-90
2021/08/08 09:30:42;;;;;;;11.93;2.13;;;18.40;99.90;;;;;;5035927;28;20249;-89
2021/08/08 09:33:10;;;;;;;5.43;1.77;;;18.60;99.90;;;;;;5020754;28;20631;-89
2021/08/08 09:35:39;;;;;;;7.90;2.17;;;18.70;99.90;;;;;;5024496;28;20253;-89
2021/08/08 09:38:10;;;;;;;6.53;1.90;;;19.00;99.90;;;;;;5040654;28;20186;-87
2021/08/08 09:40:42;;;;;;;4.20;1.30;;;18.80;99.90;;;;;;5039187;28;20205;-88
2021/08/08 09:43:10;;;;;;;3.07;1.70;;;18.80;99.90;;;;;;5041043;28;20863;-90
2021/08/08 09:45:43;;;;;;;8.47;2.30;;;19.20;99.90;;;;;;5039210;28;20414;-86
2021/08/08 09:48:11;;;;;;;5.43;2.57;;;20.30;99.90;;;;;;5017483;28;20679;-89
2021/08/08 09:50:42;;;;;;;4.43;2.10;;;20.80;99.90;;;;;;5022380;28;20182;-88
2021/08/08 09:53:19;;;;;;;5.37;1.87;;;20.80;99.90;;;;;;5017558;28;20210;-93
2021/08/08 09:55:45;;;;;;;8.70;2.00;;;20.40;99.90;;;;;;5017148;28;20196;-91
2021/08/08 09:58:11;;;;;;;3.40;1.90;;;19.70;99.90;;;;;;4998804;28;20221;-89
2021/08/08 10:00:39;;;;;;;5.50;1.23;;;19.70;99.90;;;;;;5008262;28;20234;-89
2021/08/08 10:03:08;;;;;;;5.33;2.23;;;19.30;99.90;;;;;;5015574;28;20252;-92
2021/08/08 10:05:36;;;;;;;5.30;2.00;;;19.20;99.90;;;;;;5019700;28;20224;-87
2021/08/08 10:08:22;;;;;;;5.67;2.27;;;19.30;99.90;;;;;;5022425;28;20193;-87
2021/08/08 10:10:54;;;;;;;4.57;1.33;;;19.40;99.90;;;;;;5021896;28;20246;-89
2021/08/08 10:13:26;;;;;;;4.30;1.80;;;19.30;99.90;;;;;;5022951;28;20629;-90
2021/08/08 10:15:53;;;;;;;8.70;1.47;;;19.10;99.90;;;;;;5042081;28;20194;-90
2021/08/08 10:18:23;;;;;;;3.37;1.00;;;19.00;99.90;;;;;;5008768;28;20186;-88
2021/08/08 10:20:49;;;;;;;7.23;1.90;;;19.40;99.90;;;;;;5024462;28;20213;-91
2021/08/08 10:23:17;;;;;;;8.73;1.33;;;20.00;99.90;;;;;;5022014;28;20201;-92
2021/08/08 10:25:45;;;;;;;1.53;1.20;;;20.20;99.90;;;;;;5018936;28;20686;-88
2021/08/08 10:28:11;;;;;;;4.33;1.13;;;20.20;99.90;;;;;;5023405;28;20256;-89
2021/08/08 10:30:38;;;;;;;2.13;1.10;;;20.90;99.90;;;;;;5040695;28;20750;-86
2021/08/08 10:33:05;;;;;;;4.73;1.20;;;20.80;99.90;;;;;;5025173;28;20214;-89
2021/08/08 10:35:43;;;;;;;4.40;1.23;;;21.00;99.90;;;;;;5019471;28;20687;-88
2021/08/08 10:38:10;;;;;;;5.20;1.43;;;22.00;99.90;;;;;;5016498;28;20213;-92
2021/08/08 10:40:37;;;;;;;5.47;1.70;;;22.10;99.90;;;;;;5022554;28;20261;-87
2021/08/08 10:43:08;;;;;;;5.90;1.43;;;22.40;99.90;;;;;;5004527;28;20174;-92
2021/08/08 10:45:36;;;;;;;8.17;1.53;;;22.80;99.90;;;;;;5024696;28;20292;-90
2021/08/08 10:48:08;;;;;;;4.70;1.92;;;23.10;99.90;;;;;;5020817;28;20596;-90
2021/08/08 10:50:35;;;;;;;4.22;1.27;;;23.20;99.90;;;;;;5007921;28;20222;-88
2021/08/08 10:53:01;;;;;;;9.57;1.52;;;23.30;99.90;;;;;;5025234;28;20222;-93
2021/08/08 10:55:30;;;;;;;3.75;1.30;;;22.90;99.90;;;;;;5037886;28;20186;-91
2021/08/08 10:58:02;;;;;;;2.47;1.45;;;23.30;99.90;;;;;;5025751;28;20170;-89
2021/08/08 11:00:34;;;;;;;2.65;1.40;;;23.00;99.90;;;;;;5009317;28;20222;-90
2021/08/08 11:03:16;;;;;;;4.47;1.60;;;23.40;99.90;;;;;;5043691;28;20703;-91
2021/08/08 11:05:43;;;;;;;4.38;1.05;;;22.80;99.90;;;;;;5043550;28;20235;-94
2021/08/08 11:08:11;;;;;;;2.78;1.40;;;22.60;99.90;;;;;;5012189;28;20332;-89
2021/08/08 11:10:42;;;;;;;6.18;2.20;;;22.10;99.90;;;;;;5020740;28;20226;-94
2021/08/08 11:13:17;;;;;;;6.97;1.92;;;21.30;99.90;;;;;;5045932;28;20174;-94
2021/08/08 11:15:44;;;;;;;4.43;1.42;;;21.20;99.90;;;;;;5019266;28;21277;-90
2021/08/08 11:18:10;;;;;;;3.63;1.47;;;20.70;99.90;;;;;;4987160;28;20242;-93
2021/08/08 11:20:36;;;;;;;4.53;1.90;;;20.50;99.90;;;;;;5021934;28;20246;-92
2021/08/08 11:23:03;;;;;;;11.20;1.87;;;20.40;99.90;;;;;;5022799;28;20222;-94
2021/08/08 11:25:42;;;;;;;4.43;1.57;;;20.40;99.90;;;;;;5019758;28;20182;-95
2021/08/08 11:28:09;;;;;;;5.93;2.13;;;20.20;99.90;;;;;;5039901;28;20185;-92
2021/08/08 11:30:40;;;;;;;7.03;2.07;;;20.20;99.90;;;;;;5039131;28;20873;-93
2021/08/08 11:33:07;;;;;;;3.67;1.40;;;21.00;99.90;;;;;;5022817;28;20214;-92
2021/08/08 11:35:33;;;;;;;4.30;1.90;;;21.40;99.90;;;;;;5024051;28;20682;-88
2021/08/08 11:37:59;;;;;;;3.60;1.53;;;21.00;99.90;;;;;;5022470;28;20223;-92
2021/08/08 11:40:31;;;;;;;6.67;1.80;;;20.40;99.90;;;;;;5017671;28;20249;-93
2021/08/08 11:43:03;;;;;;;6.43;1.97;;;20.40;99.90;;;;;;5040922;28;20179;-91
2021/08/08 11:45:39;;;;;;;11.53;1.70;;;21.20;99.90;;;;;;5022284;28;20213;-93
2021/08/08 11:48:06;;;;;;;1.83;1.43;;;21.10;99.90;;;;;;5035094;28;20302;-95
2021/08/08 11:50:32;;;;;;;5.13;2.07;;;20.80;99.90;;;;;;5001771;28;20936;-91
2021/08/08 11:53:00;;;;;;;3.53;1.93;;;21.20;99.90;;;;;;5002466;28;20222;-94
2021/08/08 11:55:27;;;;;;;3.80;0.97;;;21.10;99.90;;;;;;5021311;28;20199;-88
2021/08/08 11:58:10;;;;;;;2.63;1.33;;;20.70;99.90;;;;;;5005933;28;20713;-91
2021/08/08 12:00:42;;;;;;;3.07;1.40;;;21.10;99.90;;;;;;5037490;28;20313;-92
2021/08/08 12:03:09;;;;;;;7.20;1.83;;;21.10;99.90;;;;;;5005283;28;20229;-92
2021/08/08 12:05:37;;;;;;;5.70;1.77;;;21.10;99.90;;;;;;5019443;28;20230;-91
2021/08/08 12:08:07;;;;;;;8.13;2.77;;;21.20;99.90;;;;;;5036905;28;20675;-93
2021/08/08 12:10:35;;;;;;;7.80;1.77;;;21.00;99.90;;;;;;5017033;28;20242;-87
2021/08/08 12:13:14;;;;;;;5.97;1.57;;;20.90;99.90;;;;;;5011172;28;20230;-90
2021/08/08 12:15:39;;;;;;;3.13;1.90;;;21.60;99.90;;;;;;5019283;28;20209;-89
2021/08/08 12:18:06;;;;;;;2.63;1.50;;;21.70;99.90;;;;;;5025154;28;20218;-93
2021/08/08 12:20:42;;;;;;;4.63;2.03;;;21.60;99.90;;;;;;5015189;28;20934;-93
2021/08/08 12:23:15;;;;;;;6.00;2.30;;;21.60;99.90;;;;;;5016134;28;20206;-92
2021/08/08 12:25:44;;;;;;;10.17;2.17;;;21.50;99.90;;;;;;5016623;28;20229;-93
2021/08/08 12:28:21;;;;;;;4.50;1.90;;;21.60;99.90;;;;;;5017220;28;20249;-94
2021/08/08 12:30:47;;;;;;;6.07;1.93;;;21.40;99.90;;;;;;5001732;28;20296;-93
2021/08/08 12:33:15;;;;;;;6.43;2.00;;;21.40;99.90;;;;;;5000577;28;20226;-90
2021/08/08 12:35:42;;;;;;;6.93;2.07;;;21.30;99.90;;;;;;5019131;28;20205;-95
2021/08/08 12:38:16;;;;;;;5.13;2.30;;;21.20;99.90;;;;;;4999484;28;20260;-90
2021/08/08 12:40:47;;;;;;;7.10;2.27;;;20.90;99.90;;;;;;5019954;28;20317;-90
2021/08/08 12:43:23;;;;;;;5.70;2.37;;;21.20;99.90;;;;;;5009065;28;20254;-91
2021/08/08 12:45:50;;;;;;;11.47;2.37;;;21.30;99.90;;;;;;5001512;28;20237;-93